sensor_id;sensor_type;location;lat;lon;timestamp;P1;durP1;ratioP1;P2;durP2;ratioP2
16099;SDS011;8154;50.830;12.082;2024-01-16T00:01:22;2.80;;;1.27;;
16099;SDS011;8154;50.830;12.082;2024-01-16T00:04:07;2.60;;;1.20;;
16099;SDS011;8154;50.830;12.082;2024-01-16T00:06:42;1.85;;;0.95;;
16099;SDS011;8154;50.830;12.082;2024-01-16T00:09:17;2.22;;;1.20;;
16099;SDS011;8154;50.830;12.082;2024-01-16T00:11:47;2.28;;;1.13;;
16099;SDS011;8154;50.830;12.082;2024-01-16T00:14:36;2.05;;;1.10;;
16099;SDS011;8154;50.830;12.082;2024-01-16T00:17:03;2.00;;;1.10;;
16099;SDS011;8154;50.830;12.082;2024-01-16T00:19:30;2.13;;;1.10;;
16099;SDS011;8154;50.830;12.082;2024-01-16T00:21:56;2.78;;;1.02;;
16099;SDS011;8154;50.830;12.082;2024-01-16T00:24:42;1.98;;;1.00;;
16099;SDS011;8154;50.830;12.082;2024-01-16T00:27:09;2.30;;;1.10;;
16099;SDS011;8154;50.830;12.082;2024-01-16T00:29:37;2.30;;;1.00;;
16099;SDS011;8154;50.830;12.082;2024-01-16T00:32:18;1.90;;;1.00;;
16099;SDS011;8154;50.830;12.082;2024-01-16T00:34:51;1.95;;;1.02;;
16099;SDS011;8154;50.830;12.082;2024-01-16T00:37:17;2.28;;;1.15;;
16099;SDS011;8154;50.830;12.082;2024-01-16T00:39:47;2.40;;;1.10;;
16099;SDS011;8154;50.830;12.082;2024-01-16T00:42:25;2.23;;;1.17;;
16099;SDS011;8154;50.830;12.082;2024-01-16T00:44:53;2.25;;;1.10;;
16099;SDS011;8154;50.830;12.082;2024-01-16T00:47:19;2.67;;;1.13;;
16099;SDS011;8154;50.830;12.082;2024-01-16T00:49:45;2.53;;;1.10;;
16099;SDS011;8154;50.830;12.082;2024-01-16T00:52:15;2.38;;;1.10;;
16099;SDS011;8154;50.830;12.082;2024-01-16T00:55:00;2.47;;;1.00;;
16099;SDS011;8154;50.830;12.082;2024-01-16T00:57:27;2.55;;;1.25;;
16099;SDS011;8154;50.830;12.082;2024-01-16T00:59:54;1.50;;;0.93;;
16099;SDS011;8154;50.830;12.082;2024-01-16T01:02:21;1.95;;;1.02;;
16099;SDS011;8154;50.830;12.082;2024-01-16T01:05:06;2.78;;;1.15;;
16099;SDS011;8154;50.830;12.082;2024-01-16T01:07:34;1.83;;;1.00;;
16099;SDS011;8154;50.830;12.082;2024-01-16T01:10:14;1.75;;;1.00;;
16099;SDS011;8154;50.830;12.082;2024-01-16T01:12:41;1.70;;;1.00;;
16099;SDS011;8154;50.830;12.082;2024-01-16T01:15:07;1.90;;;1.02;;
16099;SDS011;8154;50.830;12.082;2024-01-16T01:17:35;2.72;;;1.10;;
16099;SDS011;8154;50.830;12.082;2024-01-16T01:20:17;1.83;;;0.97;;
16099;SDS011;8154;50.830;12.082;2024-01-16T01:22:46;2.38;;;1.02;;
16099;SDS011;8154;50.830;12.082;2024-01-16T01:25:13;2.42;;;1.08;;
16099;SDS011;8154;50.830;12.082;2024-01-16T01:27:43;1.92;;;1.00;;
16099;SDS011;8154;50.830;12.082;2024-01-16T01:30:11;1.70;;;1.17;;
16099;SDS011;8154;50.830;12.082;2024-01-16T01:32:41;2.00;;;1.10;;
16099;SDS011;8154;50.830;12.082;2024-01-16T01:35:19;2.03;;;0.90;;
16099;SDS011;8154;50.830;12.082;2024-01-16T01:37:49;1.95;;;0.93;;
16099;SDS011;8154;50.830;12.082;2024-01-16T01:40:17;2.13;;;1.00;;
16099;SDS011;8154;50.830;12.082;2024-01-16T01:43:16;2.55;;;1.05;;
16099;SDS011;8154;50.830;12.082;2024-01-16T01:45:43;1.90;;;0.90;;
16099;SDS011;8154;50.830;12.082;2024-01-16T01:48:13;2.03;;;0.90;;
16099;SDS011;8154;50.830;12.082;2024-01-16T01:50:40;1.85;;;0.90;;
16099;SDS011;8154;50.830;12.082;2024-01-16T01:53:26;2.47;;;1.00;;
16099;SDS011;8154;50.830;12.082;2024-01-16T01:55:55;1.85;;;0.90;;
16099;SDS011;8154;50.830;12.082;2024-01-16T01:58:22;2.07;;;1.00;;
16099;SDS011;8154;50.830;12.082;2024-01-16T02:00:50;1.67;;;0.95;;
16099;SDS011;8154;50.830;12.082;2024-01-16T02:03:30;1.75;;;0.98;;
16099;SDS011;8154;50.830;12.082;2024-01-16T02:06:17;1.40;;;0.80;;
16099;SDS011;8154;50.830;12.082;2024-01-16T02:08:44;1.88;;;0.82;;
16099;SDS011;8154;50.830;12.082;2024-01-16T02:11:14;1.90;;;0.83;;
16099;SDS011;8154;50.830;12.082;2024-01-16T02:13:41;2.05;;;0.90;;
16099;SDS011;8154;50.830;12.082;2024-01-16T02:16:20;1.70;;;0.90;;
16099;SDS011;8154;50.830;12.082;2024-01-16T02:18:48;1.40;;;0.80;;
16099;SDS011;8154;50.830;12.082;2024-01-16T02:21:25;2.00;;;1.00;;
16099;SDS011;8154;50.830;12.082;2024-01-16T02:24:08;1.83;;;0.90;;
16099;SDS011;8154;50.830;12.082;2024-01-16T02:26:54;1.88;;;1.00;;
16099;SDS011;8154;50.830;12.082;2024-01-16T02:29:21;1.55;;;0.80;;
16099;SDS011;8154;50.830;12.082;2024-01-16T02:31:48;1.38;;;0.77;;
16099;SDS011;8154;50.830;12.082;2024-01-16T02:34:17;1.58;;;0.90;;
16099;SDS011;8154;50.830;12.082;2024-01-16T02:36:55;1.50;;;0.90;;
16099;SDS011;8154;50.830;12.082;2024-01-16T02:39:37;1.70;;;1.00;;
16099;SDS011;8154;50.830;12.082;2024-01-16T02:42:07;1.38;;;0.90;;
16099;SDS011;8154;50.830;12.082;2024-01-16T02:44:34;2.03;;;1.00;;
16099;SDS011;8154;50.830;12.082;2024-01-16T02:47:00;1.38;;;0.85;;
16099;SDS011;8154;50.830;12.082;2024-01-16T02:49:28;2.07;;;0.90;;
16099;SDS011;8154;50.830;12.082;2024-01-16T02:51:58;1.90;;;0.90;;
16099;SDS011;8154;50.830;12.082;2024-01-16T02:54:26;2.35;;;1.00;;
16099;SDS011;8154;50.830;12.082;2024-01-16T02:57:12;1.85;;;0.90;;
16099;SDS011;8154;50.830;12.082;2024-01-16T02:59:58;1.92;;;0.93;;
16099;SDS011;8154;50.830;12.082;2024-01-16T03:02:29;1.60;;;0.90;;
16099;SDS011;8154;50.830;12.082;2024-01-16T03:04:56;1.27;;;0.80;;
16099;SDS011;8154;50.830;12.082;2024-01-16T03:07:41;2.03;;;0.90;;
16099;SDS011;8154;50.830;12.082;2024-01-16T03:10:09;1.48;;;0.80;;
16099;SDS011;8154;50.830;12.082;2024-01-16T03:12:36;2.15;;;1.00;;
16099;SDS011;8154;50.830;12.082;2024-01-16T03:15:03;1.93;;;0.90;;
16099;SDS011;8154;50.830;12.082;2024-01-16T03:17:31;1.20;;;0.70;;
16099;SDS011;8154;50.830;12.082;2024-01-16T03:20:15;2.80;;;1.00;;
16099;SDS011;8154;50.830;12.082;2024-01-16T03:23:01;2.17;;;0.95;;
16099;SDS011;8154;50.830;12.082;2024-01-16T03:25:30;1.95;;;0.85;;
16099;SDS011;8154;50.830;12.082;2024-01-16T03:27:57;1.50;;;0.80;;
16099;SDS011;8154;50.830;12.082;2024-01-16T03:30:43;1.65;;;0.88;;
16099;SDS011;8154;50.830;12.082;2024-01-16T03:33:23;1.83;;;0.80;;
16099;SDS011;8154;50.830;12.082;2024-01-16T03:36:09;1.73;;;0.90;;
16099;SDS011;8154;50.830;12.082;2024-01-16T03:38:58;1.50;;;0.77;;
16099;SDS011;8154;50.830;12.082;2024-01-16T03:41:24;1.60;;;0.83;;
16099;SDS011;8154;50.830;12.082;2024-01-16T03:43:56;1.80;;;0.90;;
16099;SDS011;8154;50.830;12.082;2024-01-16T03:46:23;1.55;;;0.80;;
16099;SDS011;8154;50.830;12.082;2024-01-16T03:49:08;2.10;;;0.90;;
16099;SDS011;8154;50.830;12.082;2024-01-16T03:51:50;1.48;;;0.75;;
16099;SDS011;8154;50.830;12.082;2024-01-16T03:54:20;1.27;;;0.70;;
16099;SDS011;8154;50.830;12.082;2024-01-16T03:56:47;1.60;;;0.80;;
16099;SDS011;8154;50.830;12.082;2024-01-16T03:59:16;1.20;;;0.80;;
16099;SDS011;8154;50.830;12.082;2024-01-16T04:02:01;1.33;;;0.80;;
16099;SDS011;8154;50.830;12.082;2024-01-16T04:04:30;1.90;;;1.00;;
16099;SDS011;8154;50.830;12.082;2024-01-16T04:06:57;1.07;;;0.70;;
16099;SDS011;8154;50.830;12.082;2024-01-16T04:09:24;1.17;;;0.77;;
16099;SDS011;8154;50.830;12.082;2024-01-16T04:11:53;1.70;;;0.90;;
16099;SDS011;8154;50.830;12.082;2024-01-16T04:14:20;1.58;;;0.77;;
16099;SDS011;8154;50.830;12.082;2024-01-16T04:16:46;1.63;;;1.00;;
16099;SDS011;8154;50.830;12.082;2024-01-16T04:19:14;1.13;;;0.70;;
16099;SDS011;8154;50.830;12.082;2024-01-16T04:21:52;1.88;;;0.88;;
16099;SDS011;8154;50.830;12.082;2024-01-16T04:24:21;1.33;;;0.80;;
16099;SDS011;8154;50.830;12.082;2024-01-16T04:26:49;1.25;;;0.70;;
16099;SDS011;8154;50.830;12.082;2024-01-16T04:29:18;1.75;;;0.90;;
16099;SDS011;8154;50.830;12.082;2024-01-16T04:31:45;1.60;;;0.90;;
16099;SDS011;8154;50.830;12.082;2024-01-16T04:34:12;1.40;;;0.70;;
16099;SDS011;8154;50.830;12.082;2024-01-16T04:36:41;1.58;;;0.73;;
16099;SDS011;8154;50.830;12.082;2024-01-16T04:39:27;2.03;;;0.90;;
16099;SDS011;8154;50.830;12.082;2024-01-16T04:42:10;1.67;;;0.77;;
16099;SDS011;8154;50.830;12.082;2024-01-16T04:44:45;1.43;;;0.80;;
16099;SDS011;8154;50.830;12.082;2024-01-16T04:47:14;1.42;;;0.60;;
16099;SDS011;8154;50.830;12.082;2024-01-16T04:49:41;1.83;;;0.80;;
16099;SDS011;8154;50.830;12.082;2024-01-16T04:52:12;1.40;;;0.80;;
16099;SDS011;8154;50.830;12.082;2024-01-16T04:54:38;2.22;;;0.90;;
16099;SDS011;8154;50.830;12.082;2024-01-16T04:57:07;1.80;;;0.70;;
16099;SDS011;8154;50.830;12.082;2024-01-16T04:59:34;1.95;;;0.80;;
16099;SDS011;8154;50.830;12.082;2024-01-16T05:02:10;1.88;;;0.80;;
16099;SDS011;8154;50.830;12.082;2024-01-16T05:04:38;1.00;;;0.60;;
16099;SDS011;8154;50.830;12.082;2024-01-16T05:07:05;1.80;;;0.80;;
16099;SDS011;8154;50.830;12.082;2024-01-16T05:17:25;1.65;;;0.80;;
16099;SDS011;8154;50.830;12.082;2024-01-16T05:19:51;1.33;;;0.70;;
16099;SDS011;8154;50.830;12.082;2024-01-16T05:22:18;1.63;;;1.00;;
16099;SDS011;8154;50.830;12.082;2024-01-16T05:24:46;1.30;;;0.67;;
16099;SDS011;8154;50.830;12.082;2024-01-16T05:27:13;1.35;;;0.70;;
16099;SDS011;8154;50.830;12.082;2024-01-16T05:29:43;1.40;;;0.70;;
16099;SDS011;8154;50.830;12.082;2024-01-16T05:32:10;1.10;;;0.70;;
16099;SDS011;8154;50.830;12.082;2024-01-16T05:34:36;1.48;;;0.77;;
16099;SDS011;8154;50.830;12.082;2024-01-16T05:37:04;1.50;;;0.87;;
16099;SDS011;8154;50.830;12.082;2024-01-16T05:39:40;1.05;;;0.60;;
16099;SDS011;8154;50.830;12.082;2024-01-16T05:42:11;1.45;;;0.80;;
16099;SDS011;8154;50.830;12.082;2024-01-16T05:44:38;1.65;;;0.70;;
16099;SDS011;8154;50.830;12.082;2024-01-16T05:47:08;1.95;;;0.90;;
16099;SDS011;8154;50.830;12.082;2024-01-16T05:49:36;1.37;;;0.80;;
16099;SDS011;8154;50.830;12.082;2024-01-16T05:52:07;1.25;;;0.77;;
16099;SDS011;8154;50.830;12.082;2024-01-16T05:54:35;1.65;;;0.80;;
16099;SDS011;8154;50.830;12.082;2024-01-16T05:57:02;1.23;;;0.75;;
16099;SDS011;8154;50.830;12.082;2024-01-16T05:59:29;1.40;;;0.75;;
16099;SDS011;8154;50.830;12.082;2024-01-16T06:01:58;1.83;;;0.70;;
16099;SDS011;8154;50.830;12.082;2024-01-16T06:04:26;2.20;;;0.90;;
16099;SDS011;8154;50.830;12.082;2024-01-16T06:06:56;1.75;;;0.70;;
16099;SDS011;8154;50.830;12.082;2024-01-16T06:09:23;2.10;;;0.80;;
16099;SDS011;8154;50.830;12.082;2024-01-16T06:11:52;1.42;;;0.80;;
16099;SDS011;8154;50.830;12.082;2024-01-16T06:14:18;1.60;;;0.83;;
16099;SDS011;8154;50.830;12.082;2024-01-16T06:16:50;1.50;;;0.80;;
16099;SDS011;8154;50.830;12.082;2024-01-16T06:19:17;1.63;;;0.80;;
16099;SDS011;8154;50.830;12.082;2024-01-16T06:21:48;2.05;;;0.80;;
16099;SDS011;8154;50.830;12.082;2024-01-16T06:24:15;1.67;;;0.90;;
16099;SDS011;8154;50.830;12.082;2024-01-16T06:26:45;2.53;;;0.93;;
16099;SDS011;8154;50.830;12.082;2024-01-16T06:29:12;2.42;;;0.88;;
16099;SDS011;8154;50.830;12.082;2024-01-16T06:31:41;1.60;;;0.90;;
16099;SDS011;8154;50.830;12.082;2024-01-16T06:34:08;2.22;;;1.10;;
16099;SDS011;8154;50.830;12.082;2024-01-16T06:36:38;2.10;;;1.10;;
16099;SDS011;8154;50.830;12.082;2024-01-16T06:39:04;1.60;;;0.90;;
16099;SDS011;8154;50.830;12.082;2024-01-16T06:41:35;2.38;;;1.02;;
16099;SDS011;8154;50.830;12.082;2024-01-16T06:44:02;2.85;;;1.33;;
16099;SDS011;8154;50.830;12.082;2024-01-16T06:46:34;2.00;;;1.02;;
16099;SDS011;8154;50.830;12.082;2024-01-16T06:49:01;2.75;;;1.13;;
16099;SDS011;8154;50.830;12.082;2024-01-16T06:51:29;1.73;;;0.83;;
16099;SDS011;8154;50.830;12.082;2024-01-16T06:53:56;2.47;;;1.00;;
16099;SDS011;8154;50.830;12.082;2024-01-16T06:56:26;1.98;;;0.90;;
16099;SDS011;8154;50.830;12.082;2024-01-16T06:59:12;1.90;;;1.00;;
16099;SDS011;8154;50.830;12.082;2024-01-16T07:01:47;2.40;;;1.00;;
16099;SDS011;8154;50.830;12.082;2024-01-16T07:04:17;1.70;;;0.83;;
16099;SDS011;8154;50.830;12.082;2024-01-16T07:06:45;2.30;;;1.15;;
16099;SDS011;8154;50.830;12.082;2024-01-16T07:09:12;2.08;;;1.10;;
16099;SDS011;8154;50.830;12.082;2024-01-16T07:11:40;1.95;;;0.90;;
16099;SDS011;8154;50.830;12.082;2024-01-16T07:14:11;2.13;;;1.13;;
16099;SDS011;8154;50.830;12.082;2024-01-16T07:16:39;2.27;;;1.10;;
16099;SDS011;8154;50.830;12.082;2024-01-16T07:19:08;2.38;;;1.02;;
16099;SDS011;8154;50.830;12.082;2024-01-16T07:21:57;1.73;;;0.90;;
16099;SDS011;8154;50.830;12.082;2024-01-16T07:24:24;2.33;;;1.10;;
16099;SDS011;8154;50.830;12.082;2024-01-16T07:26:53;2.00;;;1.08;;
16099;SDS011;8154;50.830;12.082;2024-01-16T07:29:39;1.83;;;1.00;;
16099;SDS011;8154;50.830;12.082;2024-01-16T07:32:07;2.53;;;1.00;;
16099;SDS011;8154;50.830;12.082;2024-01-16T07:34:39;2.28;;;1.10;;
16099;SDS011;8154;50.830;12.082;2024-01-16T07:37:10;1.90;;;1.10;;
16099;SDS011;8154;50.830;12.082;2024-01-16T07:39:37;1.65;;;1.02;;
16099;SDS011;8154;50.830;12.082;2024-01-16T07:42:03;2.37;;;1.00;;
16099;SDS011;8154;50.830;12.082;2024-01-16T07:44:43;1.67;;;1.02;;
16099;SDS011;8154;50.830;12.082;2024-01-16T07:47:09;2.78;;;1.10;;
16099;SDS011;8154;50.830;12.082;2024-01-16T07:49:57;2.03;;;1.00;;
16099;SDS011;8154;50.830;12.082;2024-01-16T07:52:24;2.25;;;1.10;;
16099;SDS011;8154;50.830;12.082;2024-01-16T07:54:50;2.27;;;1.10;;
16099;SDS011;8154;50.830;12.082;2024-01-16T07:57:17;2.13;;;1.15;;
16099;SDS011;8154;50.830;12.082;2024-01-16T08:00:02;1.90;;;1.00;;
16099;SDS011;8154;50.830;12.082;2024-01-16T08:02:34;1.92;;;1.00;;
16099;SDS011;8154;50.830;12.082;2024-01-16T08:05:02;2.70;;;1.08;;
16099;SDS011;8154;50.830;12.082;2024-01-16T08:07:32;2.30;;;1.07;;
16099;SDS011;8154;50.830;12.082;2024-01-16T08:10:04;2.50;;;1.13;;
16099;SDS011;8154;50.830;12.082;2024-01-16T08:12:51;1.80;;;0.98;;
16099;SDS011;8154;50.830;12.082;2024-01-16T08:15:17;2.38;;;1.00;;
16099;SDS011;8154;50.830;12.082;2024-01-16T08:17:45;2.00;;;1.10;;
16099;SDS011;8154;50.830;12.082;2024-01-16T08:20:31;1.90;;;1.00;;
16099;SDS011;8154;50.830;12.082;2024-01-16T08:22:57;2.38;;;1.17;;
16099;SDS011;8154;50.830;12.082;2024-01-16T08:25:24;2.30;;;1.20;;
16099;SDS011;8154;50.830;12.082;2024-01-16T08:28:11;2.38;;;1.13;;
16099;SDS011;8154;50.830;12.082;2024-01-16T08:30:53;2.38;;;1.20;;
16099;SDS011;8154;50.830;12.082;2024-01-16T08:33:25;2.20;;;0.90;;
16099;SDS011;8154;50.830;12.082;2024-01-16T08:35:55;2.10;;;1.00;;
16099;SDS011;8154;50.830;12.082;2024-01-16T08:38:22;2.38;;;1.10;;
16099;SDS011;8154;50.830;12.082;2024-01-16T08:41:05;2.60;;;1.08;;
16099;SDS011;8154;50.830;12.082;2024-01-16T08:43:37;1.95;;;1.08;;
16099;SDS011;8154;50.830;12.082;2024-01-16T08:46:07;2.03;;;1.00;;
16099;SDS011;8154;50.830;12.082;2024-01-16T08:48:33;2.30;;;1.10;;
16099;SDS011;8154;50.830;12.082;2024-01-16T08:51:00;2.30;;;1.20;;
16099;SDS011;8154;50.830;12.082;2024-01-16T08:53:32;2.45;;;1.20;;
16099;SDS011;8154;50.830;12.082;2024-01-16T08:56:11;2.08;;;1.20;;
16099;SDS011;8154;50.830;12.082;2024-01-16T08:58:39;2.90;;;1.23;;
16099;SDS011;8154;50.830;12.082;2024-01-16T09:01:09;2.40;;;1.20;;
16099;SDS011;8154;50.830;12.082;2024-01-16T09:03:36;2.25;;;1.00;;
16099;SDS011;8154;50.830;12.082;2024-01-16T09:06:03;2.75;;;1.30;;
16099;SDS011;8154;50.830;12.082;2024-01-16T09:08:38;2.58;;;1.30;;
16099;SDS011;8154;50.830;12.082;2024-01-16T09:11:18;2.33;;;1.10;;
16099;SDS011;8154;50.830;12.082;2024-01-16T09:13:45;2.45;;;1.15;;
16099;SDS011;8154;50.830;12.082;2024-01-16T09:16:30;2.22;;;1.00;;
16099;SDS011;8154;50.830;12.082;2024-01-16T09:18:56;2.13;;;1.17;;
16099;SDS011;8154;50.830;12.082;2024-01-16T09:21:24;2.40;;;1.20;;
16099;SDS011;8154;50.830;12.082;2024-01-16T09:23:53;3.07;;;1.13;;
16099;SDS011;8154;50.830;12.082;2024-01-16T09:26:28;1.98;;;1.00;;
16099;SDS011;8154;50.830;12.082;2024-01-16T09:29:00;1.98;;;1.10;;
16099;SDS011;8154;50.830;12.082;2024-01-16T09:31:26;2.00;;;1.10;;
16099;SDS011;8154;50.830;12.082;2024-01-16T09:34:12;2.20;;;1.00;;
16099;SDS011;8154;50.830;12.082;2024-01-16T09:36:42;2.27;;;1.27;;
16099;SDS011;8154;50.830;12.082;2024-01-16T09:39:08;2.72;;;1.05;;
16099;SDS011;8154;50.830;12.082;2024-01-16T09:41:38;2.97;;;1.30;;
16099;SDS011;8154;50.830;12.082;2024-01-16T09:44:06;2.35;;;1.00;;
16099;SDS011;8154;50.830;12.082;2024-01-16T09:46:41;2.35;;;1.15;;
16099;SDS011;8154;50.830;12.082;2024-01-16T09:49:29;2.80;;;1.20;;
16099;SDS011;8154;50.830;12.082;2024-01-16T09:51:56;1.95;;;1.00;;
16099;SDS011;8154;50.830;12.082;2024-01-16T09:54:45;2.53;;;1.10;;
16099;SDS011;8154;50.830;12.082;2024-01-16T09:57:15;2.08;;;1.05;;
16099;SDS011;8154;50.830;12.082;2024-01-16T09:59:48;2.47;;;1.13;;
16099;SDS011;8154;50.830;12.082;2024-01-16T10:02:19;1.80;;;0.87;;
16099;SDS011;8154;50.830;12.082;2024-01-16T10:04:47;2.10;;;1.08;;
16099;SDS011;8154;50.830;12.082;2024-01-16T10:07:18;2.40;;;1.13;;
16099;SDS011;8154;50.830;12.082;2024-01-16T10:09:56;2.50;;;1.05;;
16099;SDS011;8154;50.830;12.082;2024-01-16T10:12:24;1.98;;;0.90;;
16099;SDS011;8154;50.830;12.082;2024-01-16T10:15:11;2.87;;;1.10;;
16099;SDS011;8154;50.830;12.082;2024-01-16T10:17:42;1.65;;;1.00;;
16099;SDS011;8154;50.830;12.082;2024-01-16T10:20:14;2.55;;;1.10;;
16099;SDS011;8154;50.830;12.082;2024-01-16T10:22:52;2.03;;;1.00;;
16099;SDS011;8154;50.830;12.082;2024-01-16T10:25:33;1.45;;;0.90;;
16099;SDS011;8154;50.830;12.082;2024-01-16T10:39:35;2.42;;;0.98;;
16099;SDS011;8154;50.830;12.082;2024-01-16T10:42:15;1.58;;;0.80;;
16099;SDS011;8154;50.830;12.082;2024-01-16T10:44:52;2.30;;;1.00;;
16099;SDS011;8154;50.830;12.082;2024-01-16T10:47:21;2.05;;;1.13;;
16099;SDS011;8154;50.830;12.082;2024-01-16T10:49:49;3.15;;;1.23;;
16099;SDS011;8154;50.830;12.082;2024-01-16T10:52:18;2.38;;;1.00;;
16099;SDS011;8154;50.830;12.082;2024-01-16T10:55:00;2.22;;;1.00;;
16099;SDS011;8154;50.830;12.082;2024-01-16T10:57:35;1.80;;;1.00;;
16099;SDS011;8154;50.830;12.082;2024-01-16T11:00:14;2.03;;;1.08;;
16099;SDS011;8154;50.830;12.082;2024-01-16T11:02:54;2.38;;;1.00;;
16099;SDS011;8154;50.830;12.082;2024-01-16T11:05:46;2.17;;;1.00;;
16099;SDS011;8154;50.830;12.082;2024-01-16T11:08:15;1.80;;;0.90;;
16099;SDS011;8154;50.830;12.082;2024-01-16T11:10:43;2.47;;;1.10;;
16099;SDS011;8154;50.830;12.082;2024-01-16T11:13:16;3.38;;;1.20;;
16099;SDS011;8154;50.830;12.082;2024-01-16T11:15:44;1.92;;;0.90;;
16099;SDS011;8154;50.830;12.082;2024-01-16T11:18:17;2.10;;;1.17;;
16099;SDS011;8154;50.830;12.082;2024-01-16T11:20:47;2.63;;;1.10;;
16099;SDS011;8154;50.830;12.082;2024-01-16T11:23:19;1.97;;;0.93;;
16099;SDS011;8154;50.830;12.082;2024-01-16T11:25:46;2.47;;;1.00;;
16099;SDS011;8154;50.830;12.082;2024-01-16T11:28:14;1.90;;;0.90;;
16099;SDS011;8154;50.830;12.082;2024-01-16T11:30:41;2.28;;;0.90;;
16099;SDS011;8154;50.830;12.082;2024-01-16T11:35:59;2.13;;;1.00;;
16099;SDS011;8154;50.830;12.082;2024-01-16T11:38:32;2.30;;;1.00;;
16099;SDS011;8154;50.830;12.082;2024-01-16T11:41:01;2.20;;;1.00;;
16099;SDS011;8154;50.830;12.082;2024-01-16T11:43:47;1.95;;;0.90;;
16099;SDS011;8154;50.830;12.082;2024-01-16T11:46:14;1.85;;;0.98;;
16099;SDS011;8154;50.830;12.082;2024-01-16T11:48:42;1.97;;;1.00;;
16099;SDS011;8154;50.830;12.082;2024-01-16T11:51:30;2.53;;;1.10;;
16099;SDS011;8154;50.830;12.082;2024-01-16T11:53:57;2.38;;;1.10;;
16099;SDS011;8154;50.830;12.082;2024-01-16T12:05:15;2.40;;;1.10;;
16099;SDS011;8154;50.830;12.082;2024-01-16T12:07:50;1.75;;;0.95;;
16099;SDS011;8154;50.830;12.082;2024-01-16T12:10:22;2.03;;;1.00;;
16099;SDS011;8154;50.830;12.082;2024-01-16T12:12:57;2.45;;;1.23;;
16099;SDS011;8154;50.830;12.082;2024-01-16T12:15:24;2.97;;;1.10;;
16099;SDS011;8154;50.830;12.082;2024-01-16T12:20:29;2.30;;;1.00;;
16099;SDS011;8154;50.830;12.082;2024-01-16T12:22:56;2.22;;;1.05;;
16099;SDS011;8154;50.830;12.082;2024-01-16T12:25:35;1.85;;;1.10;;
16099;SDS011;8154;50.830;12.082;2024-01-16T12:28:06;2.23;;;0.90;;
16099;SDS011;8154;50.830;12.082;2024-01-16T12:30:55;1.75;;;0.90;;
16099;SDS011;8154;50.830;12.082;2024-01-16T12:33:33;1.80;;;0.98;;
16099;SDS011;8154;50.830;12.082;2024-01-16T12:36:03;1.73;;;0.90;;
16099;SDS011;8154;50.830;12.082;2024-01-16T12:38:31;2.22;;;1.10;;
16099;SDS011;8154;50.830;12.082;2024-01-16T12:41:01;2.07;;;0.90;;
16099;SDS011;8154;50.830;12.082;2024-01-16T12:43:34;2.13;;;1.00;;
16099;SDS011;8154;50.830;12.082;2024-01-16T12:46:03;1.83;;;1.00;;
16099;SDS011;8154;50.830;12.082;2024-01-16T12:48:46;1.65;;;0.90;;
16099;SDS011;8154;50.830;12.082;2024-01-16T12:51:20;2.33;;;0.82;;
16099;SDS011;8154;50.830;12.082;2024-01-16T12:54:15;2.00;;;0.90;;
16099;SDS011;8154;50.830;12.082;2024-01-16T12:56:44;2.22;;;1.05;;
16099;SDS011;8154;50.830;12.082;2024-01-16T12:59:12;2.00;;;1.00;;
16099;SDS011;8154;50.830;12.082;2024-01-16T13:01:43;1.80;;;0.80;;
16099;SDS011;8154;50.830;12.082;2024-01-16T13:04:16;1.73;;;0.90;;
16099;SDS011;8154;50.830;12.082;2024-01-16T13:07:03;1.90;;;0.83;;
16099;SDS011;8154;50.830;12.082;2024-01-16T13:09:33;1.90;;;1.00;;
16099;SDS011;8154;50.830;12.082;2024-01-16T13:12:03;1.73;;;1.00;;
16099;SDS011;8154;50.830;12.082;2024-01-16T13:14:47;1.45;;;0.70;;
16099;SDS011;8154;50.830;12.082;2024-01-16T13:17:16;2.13;;;0.95;;
16099;SDS011;8154;50.830;12.082;2024-01-16T13:19:43;2.03;;;0.93;;
16099;SDS011;8154;50.830;12.082;2024-01-16T13:22:12;1.48;;;0.82;;
16099;SDS011;8154;50.830;12.082;2024-01-16T13:24:41;2.10;;;1.00;;
16099;SDS011;8154;50.830;12.082;2024-01-16T13:27:20;1.58;;;0.80;;
16099;SDS011;8154;50.830;12.082;2024-01-16T13:29:50;1.70;;;0.90;;
16099;SDS011;8154;50.830;12.082;2024-01-16T13:32:19;1.47;;;0.90;;
16099;SDS011;8154;50.830;12.082;2024-01-16T13:34:46;2.80;;;1.00;;
16099;SDS011;8154;50.830;12.082;2024-01-16T13:37:19;1.63;;;0.80;;
16099;SDS011;8154;50.830;12.082;2024-01-16T13:39:49;1.60;;;0.80;;
16099;SDS011;8154;50.830;12.082;2024-01-16T13:42:17;2.05;;;0.95;;
16099;SDS011;8154;50.830;12.082;2024-01-16T13:44:50;1.57;;;0.80;;
16099;SDS011;8154;50.830;12.082;2024-01-16T13:47:19;1.77;;;0.90;;
16099;SDS011;8154;50.830;12.082;2024-01-16T13:49:53;1.70;;;0.80;;
16099;SDS011;8154;50.830;12.082;2024-01-16T13:52:21;1.80;;;0.93;;
16099;SDS011;8154;50.830;12.082;2024-01-16T13:54:48;2.78;;;0.95;;
16099;SDS011;8154;50.830;12.082;2024-01-16T13:57:16;1.87;;;0.90;;
16099;SDS011;8154;50.830;12.082;2024-01-16T13:59:42;1.83;;;0.90;;
16099;SDS011;8154;50.830;12.082;2024-01-16T14:02:09;1.73;;;0.93;;
16099;SDS011;8154;50.830;12.082;2024-01-16T14:04:36;2.10;;;1.00;;
16099;SDS011;8154;50.830;12.082;2024-01-16T14:07:10;2.38;;;1.08;;
16099;SDS011;8154;50.830;12.082;2024-01-16T14:21:21;1.70;;;0.90;;
16099;SDS011;8154;50.830;12.082;2024-01-16T14:23:53;1.75;;;0.93;;
16099;SDS011;8154;50.830;12.082;2024-01-16T14:37:29;1.55;;;0.80;;
16099;SDS011;8154;50.830;12.082;2024-01-16T14:39:58;1.67;;;0.90;;
16099;SDS011;8154;50.830;12.082;2024-01-16T14:42:29;1.40;;;0.90;;
16099;SDS011;8154;50.830;12.082;2024-01-16T14:44:56;1.70;;;0.80;;
16099;SDS011;8154;50.830;12.082;2024-01-16T14:47:41;2.10;;;1.00;;
16099;SDS011;8154;50.830;12.082;2024-01-16T14:50:09;2.10;;;1.00;;
16099;SDS011;8154;50.830;12.082;2024-01-16T14:52:36;2.13;;;1.10;;
16099;SDS011;8154;50.830;12.082;2024-01-16T14:55:03;2.00;;;0.90;;
16099;SDS011;8154;50.830;12.082;2024-01-16T14:57:50;1.90;;;1.00;;
16099;SDS011;8154;50.830;12.082;2024-01-16T15:00:26;2.13;;;1.05;;
16099;SDS011;8154;50.830;12.082;2024-01-16T15:03:18;2.17;;;1.13;;
16099;SDS011;8154;50.830;12.082;2024-01-16T15:06:02;2.60;;;1.25;;
16099;SDS011;8154;50.830;12.082;2024-01-16T15:08:48;3.07;;;1.33;;
16099;SDS011;8154;50.830;12.082;2024-01-16T15:11:22;4.28;;;1.90;;
16099;SDS011;8154;50.830;12.082;2024-01-16T15:13:51;3.45;;;1.70;;
16099;SDS011;8154;50.830;12.082;2024-01-16T15:16:28;5.18;;;2.17;;
16099;SDS011;8154;50.830;12.082;2024-01-16T15:18:58;5.32;;;2.50;;
16099;SDS011;8154;50.830;12.082;2024-01-16T15:21:42;5.53;;;2.57;;
16099;SDS011;8154;50.830;12.082;2024-01-16T15:24:12;6.30;;;3.20;;
16099;SDS011;8154;50.830;12.082;2024-01-16T15:26:48;6.45;;;3.00;;
16099;SDS011;8154;50.830;12.082;2024-01-16T15:29:15;5.90;;;2.85;;
16099;SDS011;8154;50.830;12.082;2024-01-16T15:31:42;6.10;;;3.17;;
16099;SDS011;8154;50.830;12.082;2024-01-16T15:34:09;5.63;;;3.20;;
16099;SDS011;8154;50.830;12.082;2024-01-16T15:36:36;6.22;;;3.35;;
16099;SDS011;8154;50.830;12.082;2024-01-16T15:39:22;7.57;;;3.40;;
16099;SDS011;8154;50.830;12.082;2024-01-16T15:41:49;5.90;;;2.92;;
16099;SDS011;8154;50.830;12.082;2024-01-16T15:44:16;6.15;;;3.00;;
16099;SDS011;8154;50.830;12.082;2024-01-16T15:49:59;5.30;;;2.80;;
16099;SDS011;8154;50.830;12.082;2024-01-16T15:52:45;6.07;;;3.20;;
16099;SDS011;8154;50.830;12.082;2024-01-16T15:55:12;5.93;;;2.88;;
16099;SDS011;8154;50.830;12.082;2024-01-16T15:57:41;6.57;;;3.10;;
16099;SDS011;8154;50.830;12.082;2024-01-16T16:00:12;6.53;;;3.27;;
16099;SDS011;8154;50.830;12.082;2024-01-16T16:02:38;5.82;;;2.97;;
16099;SDS011;8154;50.830;12.082;2024-01-16T16:05:16;5.43;;;2.72;;
16099;SDS011;8154;50.830;12.082;2024-01-16T16:07:59;5.60;;;2.70;;
16099;SDS011;8154;50.830;12.082;2024-01-16T16:10:26;6.80;;;2.80;;
16099;SDS011;8154;50.830;12.082;2024-01-16T16:13:12;5.50;;;2.80;;
16099;SDS011;8154;50.830;12.082;2024-01-16T16:15:41;5.03;;;2.60;;
16099;SDS011;8154;50.830;12.082;2024-01-16T16:18:11;6.03;;;2.92;;